Portada
METAR-TAF:

METAR-TAF

Aeroports :

San Juan de Pasto, Colòmbia

latitud: 01-25N, longitud: 077-16W, altitud: 1826 m

Observació

L'informe es va fer fa 33 minuts, a les 17:00 UTC
Vent 7 kt del Nord/Nord-Oest
Temperatura 21°C
Humitat 73%
Pressió 1019 hPa
Visibilitat 10 km o més
Núvols disperses a una alçada de 2300 ft

METAR: SKPS 171700Z 34007KT 9999 SCT023 21/16 A3009

Hora: 12:33 (17:33 UTC)


TAF: manca

Observacions i pronòstics meteorològics de més de 4000 aeroports (METAR i TAF).

Les estacions disponibles són els punts grocs i vermells al mapa.

Posi el ratolí al punt desitjat per veure el nom de l'estació.

Feu clic per veure les observacions i els pronòstics meteorològics.

Per canviar el mapa: feu clic els botons verds amb una creu de color negre per apropar; al botó verd amb un guió per allunyar la imatge; o en les fletxes verdes per a mapes adjacents.


METAR-TAF: